createdAt,value
2018-09-20T00:03:23.110Z,22.88
2018-09-20T00:08:26.408Z,22.82
2018-09-20T00:13:29.743Z,22.75
2018-09-20T00:18:33.034Z,22.75
2018-09-20T00:23:36.362Z,22.71
2018-09-20T00:28:39.651Z,22.64
2018-09-20T00:33:42.956Z,22.55
2018-09-20T00:38:46.256Z,22.52
2018-09-20T00:43:49.563Z,22.47
2018-09-20T00:48:54.770Z,22.42
2018-09-20T00:53:58.066Z,22.39
2018-09-20T00:59:01.410Z,22.33
2018-09-20T01:04:04.747Z,22.31
2018-09-20T01:09:09.850Z,22.27
2018-09-20T01:14:13.147Z,22.22
2018-09-20T01:19:16.447Z,22.23
2018-09-20T01:24:19.764Z,22.21
2018-09-20T01:29:23.054Z,22.21
2018-09-20T01:34:26.383Z,22.18
2018-09-20T01:39:29.695Z,22.18
2018-09-20T01:44:33.067Z,22.14
2018-09-20T01:49:36.411Z,22.11
2018-09-20T01:54:39.729Z,22.07
2018-09-20T01:59:43.031Z,22.03
2018-09-20T02:04:46.347Z,21.99
2018-09-20T02:09:49.675Z,21.95
2018-09-20T02:14:53.041Z,21.89
2018-09-20T02:19:56.443Z,21.84
2018-09-20T02:24:59.775Z,21.80
2018-09-20T02:30:03.118Z,21.77
2018-09-20T02:35:06.843Z,21.73
2018-09-20T02:40:10.167Z,21.64
2018-09-20T02:45:13.479Z,21.61
2018-09-20T02:50:16.782Z,21.54
2018-09-20T02:55:20.155Z,21.48
2018-09-20T03:00:23.460Z,21.47
2018-09-20T03:05:26.807Z,21.41
2018-09-20T03:10:30.132Z,21.35
2018-09-20T03:15:33.447Z,21.31
2018-09-20T03:20:36.743Z,21.24
2018-09-20T03:25:40.031Z,21.14
2018-09-20T03:30:43.456Z,21.07
2018-09-20T03:35:46.723Z,20.98
2018-09-20T03:40:50.017Z,20.86
2018-09-20T03:45:53.364Z,20.70
2018-09-20T03:50:56.700Z,20.40
2018-09-20T03:56:00.023Z,20.27
2018-09-20T04:01:03.334Z,20.24
2018-09-20T04:06:06.637Z,20.17
2018-09-20T04:11:09.961Z,20.15
2018-09-20T04:16:13.311Z,20.12
2018-09-20T04:21:22.647Z,20.12
2018-09-20T04:26:25.990Z,20.07
2018-09-20T04:31:29.981Z,20.00
2018-09-20T04:36:33.270Z,19.92
2018-09-20T04:41:36.621Z,19.92
2018-09-20T04:46:39.967Z,19.85
2018-09-20T04:51:43.297Z,19.74
2018-09-20T04:56:53.187Z,19.78
2018-09-20T05:01:56.479Z,19.77
2018-09-20T05:06:59.786Z,19.76
2018-09-20T05:12:03.104Z,19.86
2018-09-20T05:17:39.947Z,19.92
2018-09-20T05:22:43.303Z,19.90
2018-09-20T05:27:46.591Z,19.87
2018-09-20T05:32:49.889Z,19.92
2018-09-20T05:37:53.204Z,19.93
2018-09-20T05:42:56.679Z,19.95
2018-09-20T05:47:59.983Z,20.06
2018-09-20T05:53:03.308Z,20.16
2018-09-20T05:58:06.622Z,20.26
2018-09-20T06:03:09.933Z,20.37
2018-09-20T06:08:13.252Z,20.48
2018-09-20T06:13:16.612Z,20.65
2018-09-20T06:18:19.921Z,20.78
2018-09-20T06:23:23.218Z,20.92
2018-09-20T06:28:26.509Z,21.03
2018-09-20T06:33:29.806Z,21.15
2018-09-20T06:38:33.114Z,21.27
2018-09-20T06:43:36.425Z,21.39
2018-09-20T06:48:39.723Z,21.51
2018-09-20T06:53:43.038Z,21.66
2018-09-20T06:58:46.407Z,21.75
2018-09-20T07:03:49.739Z,21.86
2018-09-20T07:08:53.027Z,21.91
2018-09-20T07:13:56.349Z,22.01
2018-09-20T07:18:59.650Z,22.13
2018-09-20T07:24:03.188Z,22.34
2018-09-20T07:29:06.501Z,22.58
2018-09-20T07:34:09.795Z,22.56
2018-09-20T07:39:13.073Z,22.59
2018-09-20T07:44:16.390Z,22.72
2018-09-20T07:49:19.703Z,22.83
2018-09-20T07:54:23.002Z,22.86
2018-09-20T07:59:26.306Z,22.92
2018-09-20T08:04:29.605Z,22.96
2018-09-20T08:09:32.891Z,23.03
2018-09-20T08:14:36.187Z,23.14
2018-09-20T08:19:39.483Z,23.27
2018-09-20T08:24:42.863Z,23.43
2018-09-20T08:29:46.186Z,23.62
2018-09-20T08:34:49.508Z,23.73
2018-09-20T08:39:52.828Z,23.85
2018-09-20T08:44:56.132Z,23.96
2018-09-20T08:49:59.443Z,24.17
2018-09-20T08:55:02.768Z,24.32
2018-09-20T09:00:06.862Z,24.45
2018-09-20T09:05:10.155Z,24.67
2018-09-20T09:10:13.468Z,24.76
2018-09-20T09:15:16.790Z,24.89
2018-09-20T09:20:20.100Z,25.10
2018-09-20T09:25:23.408Z,25.30
2018-09-20T09:30:26.722Z,25.43
2018-09-20T09:35:30.045Z,25.56
2018-09-20T09:40:33.336Z,25.64
2018-09-20T09:45:36.622Z,25.73
2018-09-20T09:50:39.931Z,25.77
2018-09-20T09:55:43.262Z,25.92
2018-09-20T10:00:46.584Z,26.15
2018-09-20T10:05:49.910Z,26.40
2018-09-20T10:10:53.232Z,26.55
2018-09-20T10:15:56.561Z,26.53
2018-09-20T10:20:59.876Z,26.62
2018-09-20T10:26:03.164Z,26.85
2018-09-20T10:31:06.459Z,26.98
2018-09-20T10:36:09.746Z,27.35
2018-09-20T10:41:13.055Z,27.80
2018-09-20T10:46:16.406Z,27.94
2018-09-20T10:51:19.822Z,27.84
2018-09-20T10:56:23.136Z,27.77
2018-09-20T11:01:26.458Z,28.09
2018-09-20T11:06:29.803Z,28.40
2018-09-20T11:11:33.139Z,28.94
2018-09-20T11:16:37.223Z,29.48
2018-09-20T11:21:40.578Z,33.95
2018-09-20T11:26:43.912Z,36.99
2018-09-20T11:31:47.254Z,39.30
2018-09-20T11:36:50.547Z,38.63
2018-09-20T11:41:53.894Z,38.00
2018-09-20T11:46:57.231Z,38.24
2018-09-20T11:52:00.536Z,36.13
2018-09-20T11:57:03.834Z,37.12
2018-09-20T12:02:07.172Z,39.00
2018-09-20T12:07:10.494Z,37.66
2018-09-20T12:12:13.792Z,39.00
2018-09-20T12:17:17.107Z,33.00
2018-09-20T12:22:20.523Z,31.30
2018-09-20T12:27:23.827Z,34.02
2018-09-20T12:32:27.182Z,37.64
2018-09-20T12:37:35.535Z,39.44
2018-09-20T12:42:38.850Z,40.11
2018-09-20T12:47:42.171Z,38.47
2018-09-20T12:52:45.465Z,39.92
2018-09-20T12:57:48.767Z,40.53
2018-09-20T13:02:52.055Z,39.84
2018-09-20T13:07:55.352Z,34.73
2018-09-20T13:12:58.843Z,37.55
2018-09-20T13:18:02.177Z,37.96
2018-09-20T13:23:05.507Z,39.08
2018-09-20T13:28:09.223Z,35.26
2018-09-20T13:33:12.594Z,36.13
2018-09-20T13:38:15.921Z,37.02
2018-09-20T13:43:19.272Z,36.26
2018-09-20T13:48:22.715Z,35.38
2018-09-20T13:53:26.026Z,34.49
2018-09-20T13:58:29.319Z,33.56
2018-09-20T14:03:32.781Z,32.33
2018-09-20T14:08:36.292Z,32.12
2018-09-20T14:13:39.622Z,32.47
2018-09-20T14:18:42.939Z,32.54
2018-09-20T14:23:46.373Z,31.54
2018-09-20T14:28:49.635Z,31.50
2018-09-20T14:33:52.983Z,31.20
2018-09-20T14:38:56.328Z,30.86
2018-09-20T14:43:59.737Z,30.72
2018-09-20T14:49:03.183Z,30.66
2018-09-20T14:54:06.612Z,30.43
2018-09-20T14:59:10.028Z,30.47
2018-09-20T15:04:13.350Z,30.41
2018-09-20T15:09:16.750Z,30.48
2018-09-20T15:14:20.104Z,30.23
2018-09-20T15:19:23.423Z,30.21
2018-09-20T15:24:26.835Z,30.24
2018-09-20T15:29:30.300Z,30.29
2018-09-20T15:34:33.644Z,30.27
2018-09-20T15:39:36.971Z,30.14
2018-09-20T15:44:40.334Z,29.87
2018-09-20T15:49:43.661Z,29.79
2018-09-20T15:54:47.024Z,29.85
2018-09-20T15:59:50.392Z,29.83
2018-09-20T16:04:53.721Z,29.78
2018-09-20T16:09:57.091Z,29.74
2018-09-20T16:15:00.448Z,29.67
2018-09-20T16:20:04.009Z,29.65
2018-09-20T16:25:07.703Z,29.62
2018-09-20T16:30:28.624Z,29.49
2018-09-20T16:35:44.262Z,29.32
2018-09-20T16:40:49.038Z,28.96
2018-09-20T16:45:52.363Z,28.66
2018-09-20T16:50:55.672Z,28.43
2018-09-20T16:55:58.994Z,28.25
2018-09-20T17:01:02.439Z,28.10
2018-09-20T17:06:05.886Z,27.93
2018-09-20T17:11:09.266Z,27.74
2018-09-20T17:16:12.667Z,27.62
2018-09-20T17:21:16.039Z,27.51
2018-09-20T17:26:19.379Z,27.38
2018-09-20T17:31:22.779Z,27.27
2018-09-20T17:36:26.411Z,27.17
2018-09-20T17:41:31.995Z,27.05
2018-09-20T17:46:35.479Z,26.96
2018-09-20T17:51:39.101Z,26.85
2018-09-20T17:56:42.835Z,26.69
2018-09-20T18:01:46.127Z,26.44
2018-09-20T18:06:49.527Z,26.33
2018-09-20T18:11:52.848Z,26.17
2018-09-20T18:16:56.227Z,26.01
2018-09-20T18:21:59.548Z,25.85
2018-09-20T18:27:02.867Z,25.69
2018-09-20T18:32:05.799Z,25.52
2018-09-20T18:37:09.122Z,25.44
2018-09-20T18:42:12.451Z,25.37
2018-09-20T18:47:16.105Z,25.37
2018-09-20T18:52:19.427Z,25.36
2018-09-20T18:57:22.756Z,25.27
2018-09-20T19:02:26.057Z,25.16
2018-09-20T19:07:29.458Z,25.14
2018-09-20T19:12:32.767Z,25.09
2018-09-20T19:17:36.118Z,25.05
2018-09-20T19:22:39.439Z,25.03
2018-09-20T19:27:42.990Z,24.89
2018-09-20T19:32:46.339Z,24.65
2018-09-20T19:37:49.664Z,24.50
2018-09-20T19:42:52.988Z,24.57
2018-09-20T19:47:56.300Z,24.61
2018-09-20T19:52:59.619Z,24.59
2018-09-20T19:58:02.909Z,24.44
2018-09-20T20:03:06.263Z,24.40
2018-09-20T20:08:09.626Z,24.47
2018-09-20T20:13:13.025Z,24.55
2018-09-20T20:23:51.091Z,24.46
2018-09-20T20:28:54.542Z,24.34
2018-09-20T20:33:57.883Z,24.33
2018-09-20T20:39:01.326Z,24.38
2018-09-20T20:44:04.731Z,24.44
2018-09-20T20:49:08.047Z,24.47
2018-09-20T20:54:11.486Z,24.47
2018-09-20T20:59:14.826Z,24.43
2018-09-20T21:04:18.158Z,24.39
2018-09-20T21:09:21.631Z,24.31
2018-09-20T21:14:24.995Z,24.28
2018-09-20T21:19:28.362Z,24.25
2018-09-20T21:24:31.799Z,24.19
2018-09-20T21:29:35.205Z,24.13
2018-09-20T21:34:38.704Z,24.12
2018-09-20T21:39:42.071Z,24.10
2018-09-20T21:44:45.400Z,24.06
2018-09-20T21:49:48.723Z,24.02
2018-09-20T21:54:52.023Z,23.99
2018-09-20T21:59:55.363Z,23.96
2018-09-20T22:04:58.721Z,23.95
2018-09-20T22:10:02.097Z,23.94
2018-09-20T22:15:10.700Z,23.90
2018-09-20T22:20:14.215Z,23.87
2018-09-20T22:25:17.600Z,23.83
2018-09-20T22:30:21.278Z,23.85
2018-09-20T22:35:25.401Z,23.82
2018-09-20T22:40:28.744Z,23.78
2018-09-20T22:45:32.249Z,23.74
2018-09-20T22:50:35.590Z,23.70
2018-09-20T22:55:38.916Z,23.64
2018-09-20T23:00:42.254Z,23.59
2018-09-20T23:05:45.581Z,23.53
2018-09-20T23:10:48.903Z,23.44
2018-09-20T23:15:52.218Z,23.41
2018-09-20T23:20:55.593Z,23.33
2018-09-20T23:25:58.981Z,23.29
2018-09-20T23:31:02.295Z,23.26
2018-09-20T23:36:05.594Z,23.27
2018-09-20T23:41:08.985Z,23.25
2018-09-20T23:46:12.315Z,23.19
2018-09-20T23:51:15.735Z,23.16
2018-09-20T23:56:19.039Z,23.14
